Time,TemperatureF,DewpointF,PressureIn,WindDirection,WindDirectionDegrees,WindSpeedMPH,WindSpeedGustMPH,Humidity,HourlyPrecipIn,Conditions,Clouds,dailyrainin,SoftwareType,DateUTC
2013-06-06 00:03:00,74.0,68.0,30.06,East,95,6.0,9.0,82,0.00,,,0.00,,2013-06-06 04:03:00,
2013-06-06 00:13:00,74.0,68.0,30.06,East,95,6.0,9.0,82,0.00,,,0.00,,2013-06-06 04:13:00,
2013-06-06 00:23:00,74.0,68.0,30.06,ENE,68,3.0,8.0,81,0.00,,,0.00,,2013-06-06 04:23:00,
2013-06-06 00:33:00,74.0,68.0,30.06,East,79,3.0,8.0,82,0.00,,,0.00,,2013-06-06 04:33:00,
2013-06-06 00:42:00,74.0,68.0,30.06,East,79,3.0,8.0,82,0.00,,,0.00,,2013-06-06 04:42:00,
2013-06-06 00:53:00,74.0,68.0,30.06,East,86,4.0,9.0,83,0.00,,,0.00,,2013-06-06 04:53:00,
2013-06-06 01:02:00,74.0,68.0,30.06,ESE,122,8.0,11.0,83,0.00,,,0.00,,2013-06-06 05:02:00,
2013-06-06 01:12:00,74.0,68.0,30.06,ESE,122,8.0,11.0,83,0.00,,,0.00,,2013-06-06 05:12:00,
2013-06-06 01:22:00,74.0,69.0,30.06,East,90,3.0,9.0,84,0.00,,,0.00,,2013-06-06 05:22:00,
2013-06-06 01:32:00,74.0,69.0,30.05,East,82,5.0,9.0,85,0.00,,,0.00,,2013-06-06 05:32:00,
2013-06-06 01:42:00,74.0,69.0,30.05,East,82,5.0,9.0,85,0.00,,,0.00,,2013-06-06 05:42:00,
2013-06-06 01:52:00,74.0,69.0,30.05,East,79,7.0,10.0,85,0.00,,,0.00,,2013-06-06 05:52:00,
2013-06-06 02:02:00,74.0,69.0,30.05,East,79,7.0,10.0,85,0.00,,,0.00,,2013-06-06 06:02:00,
2013-06-06 02:12:00,74.0,69.0,30.05,East,79,7.0,10.0,85,0.00,,,0.00,,2013-06-06 06:12:00,
2013-06-06 02:22:00,74.0,70.0,30.05,East,96,6.0,10.0,86,0.00,,,0.00,,2013-06-06 06:22:00,
2013-06-06 02:32:00,73.0,69.0,30.04,ESE,103,5.0,9.0,87,0.00,,,0.00,,2013-06-06 06:32:00,
2013-06-06 02:42:00,73.0,69.0,30.04,ESE,103,5.0,9.0,87,0.00,,,0.00,,2013-06-06 06:42:00,
2013-06-06 02:52:00,73.0,69.0,30.04,East,96,7.0,11.0,87,0.00,,,0.00,,2013-06-06 06:52:00,
2013-06-06 03:02:00,73.0,69.0,30.03,East,96,8.0,11.0,87,0.00,,,0.00,,2013-06-06 07:02:00,
2013-06-06 03:12:00,73.0,69.0,30.03,East,96,8.0,11.0,87,0.00,,,0.00,,2013-06-06 07:12:00,
2013-06-06 03:22:00,73.0,69.0,30.02,SE,136,9.0,12.0,87,0.00,,,0.00,,2013-06-06 07:22:00,
2013-06-06 03:32:00,73.0,69.0,30.02,ESE,103,7.0,12.0,87,0.00,,,0.00,,2013-06-06 07:32:00,
2013-06-06 03:42:00,73.0,69.0,30.02,ESE,103,7.0,12.0,87,0.00,,,0.00,,2013-06-06 07:42:00,
2013-06-06 03:52:00,73.0,69.0,30.01,ESE,107,7.0,10.0,87,0.00,,,0.00,,2013-06-06 07:52:00,
2013-06-06 04:02:00,73.0,69.0,30.01,East,100,7.0,11.0,88,0.00,,,0.00,,2013-06-06 08:02:00,
2013-06-06 04:12:00,73.0,69.0,30.01,East,100,7.0,11.0,88,0.00,,,0.00,,2013-06-06 08:12:00,
2013-06-06 04:22:00,73.0,69.0,30.00,East,91,6.0,11.0,88,0.00,,,0.00,,2013-06-06 08:22:00,
2013-06-06 04:32:00,73.0,69.0,30.00,ESE,117,8.0,11.0,87,0.00,,,0.00,,2013-06-06 08:32:00,
2013-06-06 04:42:00,72.0,68.0,29.99,SE,127,7.0,10.0,87,0.00,,,0.00,,2013-06-06 08:42:00,
2013-06-06 04:52:00,72.0,68.0,29.99,SE,127,7.0,10.0,87,0.00,,,0.00,,2013-06-06 08:52:00,
2013-06-06 05:02:00,72.0,68.0,29.99,ESE,103,6.0,9.0,87,0.00,,,0.00,,2013-06-06 09:02:00,
2013-06-06 05:12:00,72.0,68.0,29.99,ESE,103,6.0,9.0,87,0.00,,,0.00,,2013-06-06 09:12:00,
2013-06-06 05:22:00,73.0,69.0,29.99,East,98,6.0,8.0,87,0.00,,,0.00,,2013-06-06 09:22:00,
2013-06-06 05:33:00,72.0,68.0,29.99,ESE,123,6.0,8.0,87,0.00,,,0.00,,2013-06-06 09:33:00,
2013-06-06 05:43:00,72.0,68.0,29.99,ESE,123,6.0,8.0,87,0.00,,,0.00,,2013-06-06 09:43:00,
2013-06-06 05:53:00,72.0,68.0,29.99,SE,128,5.0,7.0,87,0.00,,,0.00,,2013-06-06 09:53:00,
2013-06-06 06:03:00,72.0,68.0,29.98,ESE,120,4.0,7.0,87,0.00,,,0.00,,2013-06-06 10:03:00,
2013-06-06 06:12:00,72.0,68.0,29.98,ESE,120,4.0,7.0,87,0.00,,,0.00,,2013-06-06 10:12:00,
2013-06-06 06:23:00,72.0,68.0,29.99,East,82,3.0,6.0,87,0.00,,,0.00,,2013-06-06 10:23:00,
2013-06-06 06:33:00,72.0,68.0,29.99,East,83,3.0,5.0,88,0.00,,,0.00,,2013-06-06 10:33:00,
2013-06-06 06:42:00,72.0,68.0,29.99,East,83,3.0,5.0,88,0.00,,,0.00,,2013-06-06 10:42:00,
2013-06-06 06:52:00,72.0,68.0,29.98,East,98,5.0,7.0,88,0.00,,,0.00,,2013-06-06 10:52:00,
2013-06-06 07:02:00,73.0,69.0,29.99,ESE,118,6.0,7.0,87,0.00,,,0.00,,2013-06-06 11:02:00,
2013-06-06 07:12:00,73.0,69.0,29.99,ESE,118,6.0,7.0,87,0.00,,,0.00,,2013-06-06 11:12:00,
2013-06-06 07:23:00,73.0,69.0,29.99,ESE,106,6.0,8.0,87,0.00,,,0.00,,2013-06-06 11:23:00,
2013-06-06 07:32:00,73.0,69.0,29.99,East,96,7.0,9.0,87,0.00,,,0.00,,2013-06-06 11:32:00,
2013-06-06 07:42:00,73.0,69.0,29.99,East,96,7.0,9.0,87,0.00,,,0.00,,2013-06-06 11:42:00,
2013-06-06 07:52:00,73.0,69.0,29.98,East,89,8.0,10.0,87,0.00,,,0.00,,2013-06-06 11:52:00,
2013-06-06 08:03:00,74.0,70.0,29.98,East,86,8.0,9.0,86,0.00,,,0.00,,2013-06-06 12:03:00,
2013-06-06 08:13:00,74.0,70.0,29.98,East,86,8.0,9.0,86,0.00,,,0.00,,2013-06-06 12:13:00,
2013-06-06 08:23:00,74.0,70.0,29.98,East,85,8.0,10.0,86,0.00,,,0.00,,2013-06-06 12:23:00,
2013-06-06 08:33:00,74.0,70.0,29.98,East,90,9.0,10.0,86,0.00,,,0.00,,2013-06-06 12:33:00,
2013-06-06 08:43:00,75.0,71.0,29.98,ESE,102,8.0,11.0,86,0.00,,,0.00,,2013-06-06 12:43:00,
2013-06-06 08:52:00,75.0,71.0,29.98,ESE,102,8.0,11.0,86,0.00,,,0.00,,2013-06-06 12:52:00,
2013-06-06 09:03:00,76.0,71.0,29.98,ESE,118,10.0,14.0,85,0.00,,,0.00,,2013-06-06 13:03:00,
2013-06-06 09:13:00,76.0,71.0,29.98,ESE,118,10.0,14.0,85,0.00,,,0.00,,2013-06-06 13:13:00,
2013-06-06 09:23:00,76.0,70.0,29.98,ESE,121,12.0,16.0,83,0.00,,,0.00,,2013-06-06 13:23:00,
2013-06-06 09:33:00,76.0,70.0,29.99,ESE,110,12.0,16.0,83,0.00,,,0.00,,2013-06-06 13:33:00,
2013-06-06 09:43:00,76.0,70.0,29.99,ESE,110,12.0,16.0,83,0.00,,,0.00,,2013-06-06 13:43:00,
2013-06-06 09:52:00,76.0,70.0,29.99,ESE,111,13.0,17.0,81,0.00,,,0.00,,2013-06-06 13:52:00,
2013-06-06 10:03:00,76.0,70.0,29.99,ESE,122,12.0,17.0,82,0.00,,,0.00,,2013-06-06 14:03:00,
2013-06-06 10:13:00,76.0,70.0,29.99,ESE,122,12.0,17.0,82,0.00,,,0.00,,2013-06-06 14:13:00,
2013-06-06 10:23:00,76.0,70.0,29.99,ESE,117,12.0,15.0,82,0.00,,,0.00,,2013-06-06 14:23:00,
2013-06-06 10:33:00,76.0,70.0,29.99,ESE,117,12.0,15.0,82,0.00,,,0.00,,2013-06-06 14:33:00,
2013-06-06 10:43:00,76.0,70.0,29.99,ESE,117,12.0,15.0,82,0.00,,,0.00,,2013-06-06 14:43:00,
2013-06-06 10:52:00,77.0,71.0,29.99,SE,125,12.0,15.0,81,0.00,,,0.00,,2013-06-06 14:52:00,
2013-06-06 11:03:00,77.0,71.0,29.99,ESE,120,10.0,14.0,83,0.00,,,0.00,,2013-06-06 15:03:00,
2013-06-06 11:13:00,77.0,71.0,29.99,ESE,120,10.0,14.0,83,0.00,,,0.00,,2013-06-06 15:13:00,
2013-06-06 11:23:00,76.0,70.0,29.99,SSE,147,10.0,16.0,82,0.00,,,0.00,,2013-06-06 15:23:00,
2013-06-06 11:33:00,76.0,70.0,29.99,ESE,120,13.0,15.0,81,0.00,,,0.00,,2013-06-06 15:33:00,
2013-06-06 11:43:00,76.0,70.0,29.99,ESE,120,13.0,15.0,81,0.00,,,0.00,,2013-06-06 15:43:00,
2013-06-06 11:53:00,76.0,70.0,29.99,ESE,118,12.0,15.0,81,0.00,,,0.00,,2013-06-06 15:53:00,
2013-06-06 12:03:00,77.0,70.0,29.99,ESE,120,11.0,16.0,80,0.00,,,0.00,,2013-06-06 16:03:00,
2013-06-06 12:13:00,77.0,70.0,29.99,ESE,120,11.0,16.0,80,0.00,,,0.00,,2013-06-06 16:13:00,
2013-06-06 12:23:00,77.0,71.0,29.99,ESE,106,10.0,13.0,82,0.00,,,0.00,,2013-06-06 16:23:00,
2013-06-06 12:33:00,77.0,70.0,29.98,SE,131,10.0,14.0,80,0.00,,,0.00,,2013-06-06 16:33:00,
2013-06-06 12:44:00,77.0,70.0,29.98,SE,131,10.0,14.0,80,0.00,,,0.00,,2013-06-06 16:44:00,
2013-06-06 12:52:00,77.0,71.0,29.98,SE,135,10.0,14.0,81,0.00,,,0.00,,2013-06-06 16:52:00,
2013-06-06 13:03:00,78.0,71.0,29.98,SE,138,9.0,14.0,79,0.00,,,0.00,,2013-06-06 17:03:00,
2013-06-06 13:13:00,78.0,71.0,29.98,SE,138,9.0,14.0,79,0.00,,,0.00,,2013-06-06 17:13:00,
2013-06-06 13:23:00,78.0,71.0,29.98,SE,138,10.0,14.0,80,0.00,,,0.00,,2013-06-06 17:23:00,
2013-06-06 13:33:00,78.0,71.0,29.98,SE,131,10.0,15.0,80,0.00,,,0.00,,2013-06-06 17:33:00,
2013-06-06 13:43:00,78.0,71.0,29.98,SE,131,10.0,15.0,80,0.00,,,0.00,,2013-06-06 17:43:00,
2013-06-06 13:52:00,78.0,72.0,29.97,SE,143,10.0,15.0,81,0.00,,,0.00,,2013-06-06 17:52:00,
2013-06-06 14:03:00,78.0,71.0,29.96,SE,135,10.0,15.0,79,0.00,,,0.00,,2013-06-06 18:03:00,
2013-06-06 14:13:00,78.0,71.0,29.96,SE,135,10.0,15.0,79,0.00,,,0.00,,2013-06-06 18:13:00,
2013-06-06 14:23:00,78.0,71.0,29.95,SE,138,10.0,15.0,80,0.00,,,0.00,,2013-06-06 18:23:00,
2013-06-06 14:33:00,77.0,71.0,29.95,SE,128,9.0,14.0,82,0.00,,,0.00,,2013-06-06 18:33:00,
2013-06-06 14:43:00,77.0,71.0,29.95,SE,128,9.0,14.0,82,0.00,,,0.00,,2013-06-06 18:43:00,
2013-06-06 14:53:00,77.0,71.0,29.95,SE,136,10.0,14.0,81,0.00,,,0.00,,2013-06-06 18:53:00,
2013-06-06 15:03:00,77.0,71.0,29.94,SE,134,9.0,12.0,82,0.00,,,0.00,,2013-06-06 19:03:00,
2013-06-06 15:13:00,77.0,71.0,29.94,SE,134,9.0,12.0,82,0.00,,,0.00,,2013-06-06 19:13:00,
2013-06-06 15:23:00,77.0,71.0,29.94,SE,125,11.0,14.0,82,0.00,,,0.00,,2013-06-06 19:23:00,
2013-06-06 15:33:00,77.0,71.0,29.93,SE,131,11.0,14.0,83,0.00,,,0.00,,2013-06-06 19:33:00,
2013-06-06 15:43:00,77.0,71.0,29.93,SE,131,11.0,14.0,83,0.00,,,0.00,,2013-06-06 19:43:00,
2013-06-06 15:53:00,77.0,72.0,29.93,ESE,120,10.0,14.0,85,0.00,,,0.00,,2013-06-06 19:53:00,
2013-06-06 16:03:00,76.0,72.0,29.93,SE,125,9.0,13.0,87,0.01,,,0.01,,2013-06-06 20:03:00,
2013-06-06 16:13:00,76.0,72.0,29.93,SE,125,9.0,13.0,87,0.01,,,0.01,,2013-06-06 20:13:00,
2013-06-06 16:23:00,76.0,72.0,29.92,ESE,114,8.0,11.0,88,0.01,,,0.01,,2013-06-06 20:23:00,
2013-06-06 16:33:00,76.0,72.0,29.91,SE,125,8.0,11.0,88,0.01,,,0.01,,2013-06-06 20:33:00,
2013-06-06 16:43:00,76.0,72.0,29.91,SE,125,8.0,11.0,88,0.01,,,0.01,,2013-06-06 20:43:00,
2013-06-06 16:53:00,77.0,73.0,29.91,SE,134,7.0,11.0,88,0.01,,,0.01,,2013-06-06 20:53:00,
2013-06-06 17:03:00,77.0,73.0,29.91,SE,125,8.0,12.0,88,0.00,,,0.01,,2013-06-06 21:03:00,
2013-06-06 17:13:00,77.0,73.0,29.91,SE,125,8.0,12.0,88,0.00,,,0.01,,2013-06-06 21:13:00,
2013-06-06 17:23:00,76.0,72.0,29.90,SE,125,11.0,14.0,88,0.00,,,0.01,,2013-06-06 21:23:00,
2013-06-06 17:33:00,76.0,73.0,29.90,ESE,117,8.0,12.0,90,0.00,,,0.01,,2013-06-06 21:33:00,
2013-06-06 17:44:00,76.0,73.0,29.90,ESE,117,8.0,12.0,90,0.00,,,0.01,,2013-06-06 21:44:00,
2013-06-06 17:53:00,75.0,72.0,29.89,SE,139,9.0,16.0,90,0.06,,,0.07,,2013-06-06 21:53:00,
2013-06-06 18:03:00,75.0,73.0,29.89,ESE,122,6.0,11.0,93,0.10,,,0.11,,2013-06-06 22:03:00,
2013-06-06 18:13:00,75.0,73.0,29.89,ESE,122,6.0,11.0,93,0.10,,,0.11,,2013-06-06 22:13:00,
2013-06-06 18:23:00,75.0,73.0,29.88,SE,124,6.0,10.0,93,0.10,,,0.11,,2013-06-06 22:23:00,
2013-06-06 18:33:00,74.0,72.0,29.88,SSE,162,8.0,13.0,93,0.10,,,0.11,,2013-06-06 22:33:00,
2013-06-06 18:43:00,74.0,72.0,29.88,SSE,162,8.0,13.0,93,0.10,,,0.11,,2013-06-06 22:43:00,
2013-06-06 18:53:00,74.0,72.0,29.88,SE,135,7.0,11.0,93,0.03,,,0.11,,2013-06-06 22:53:00,
2013-06-06 19:03:00,74.0,72.0,29.88,SSE,156,6.0,10.0,93,0.00,,,0.11,,2013-06-06 23:03:00,
2013-06-06 19:13:00,74.0,72.0,29.88,SSE,156,6.0,10.0,93,0.00,,,0.11,,2013-06-06 23:13:00,
2013-06-06 19:22:00,74.0,72.0,29.88,SSE,157,6.0,9.0,93,0.00,,,0.11,,2013-06-06 23:22:00,
2013-06-06 19:33:00,73.0,71.0,29.88,SE,146,2.0,5.0,94,0.00,,,0.11,,2013-06-06 23:33:00,
2013-06-06 19:43:00,73.0,71.0,29.88,SE,146,2.0,5.0,94,0.00,,,0.11,,2013-06-06 23:43:00,
2013-06-06 19:52:00,73.0,71.0,29.88,SSE,149,3.0,5.0,94,0.00,,,0.11,,2013-06-06 23:52:00,
2013-06-06 20:02:00,74.0,72.0,29.88,SSE,166,2.0,5.0,95,0.00,,,0.11,,2013-06-07 00:02:00,
2013-06-06 20:13:00,74.0,72.0,29.88,SSE,166,2.0,5.0,95,0.00,,,0.11,,2013-06-07 00:13:00,
2013-06-06 20:22:00,74.0,72.0,29.89,SSW,210,3.0,5.0,95,0.00,,,0.11,,2013-06-07 00:22:00,
2013-06-06 20:32:00,74.0,72.0,29.89,SW,228,4.0,8.0,95,0.00,,,0.11,,2013-06-07 00:32:00,
2013-06-06 20:42:00,74.0,72.0,29.89,SW,228,4.0,8.0,95,0.00,,,0.11,,2013-06-07 00:42:00,
2013-06-06 20:52:00,74.0,72.0,29.89,SW,236,2.0,5.0,95,0.00,,,0.11,,2013-06-07 00:52:00,
2013-06-06 21:03:00,74.0,72.0,29.89,SW,231,3.0,4.0,95,0.00,,,0.11,,2013-06-07 01:03:00,
2013-06-06 21:12:00,74.0,72.0,29.89,SW,231,3.0,4.0,95,0.00,,,0.11,,2013-06-07 01:12:00,
2013-06-06 21:22:00,74.0,72.0,29.90,SW,217,5.0,8.0,95,0.00,,,0.11,,2013-06-07 01:22:00,
2013-06-06 21:32:00,74.0,72.0,29.90,WSW,238,4.0,8.0,95,0.00,,,0.11,,2013-06-07 01:32:00,
2013-06-06 21:42:00,74.0,72.0,29.90,WSW,238,4.0,8.0,95,0.00,,,0.11,,2013-06-07 01:42:00,
2013-06-06 21:52:00,74.0,72.0,29.90,SSW,201,5.0,7.0,95,0.00,,,0.11,,2013-06-07 01:52:00,
2013-06-06 22:02:00,74.0,72.0,29.90,SSW,205,5.0,7.0,95,0.00,,,0.11,,2013-06-07 02:02:00,
2013-06-06 22:12:00,74.0,72.0,29.90,SSW,205,5.0,7.0,95,0.00,,,0.11,,2013-06-07 02:12:00,
2013-06-06 22:22:00,74.0,72.0,29.91,SSW,197,6.0,9.0,95,0.00,,,0.11,,2013-06-07 02:22:00,
2013-06-06 22:32:00,74.0,73.0,29.91,SSW,203,5.0,7.0,96,0.00,,,0.11,,2013-06-07 02:32:00,
2013-06-06 22:42:00,74.0,73.0,29.91,SSW,203,5.0,7.0,96,0.00,,,0.11,,2013-06-07 02:42:00,
2013-06-06 22:52:00,74.0,73.0,29.91,SSW,198,5.0,7.0,96,0.00,,,0.11,,2013-06-07 02:52:00,
2013-06-06 23:02:00,74.0,73.0,29.91,South,184,3.0,6.0,96,0.00,,,0.11,,2013-06-07 03:02:00,
2013-06-06 23:12:00,74.0,73.0,29.91,South,184,3.0,6.0,96,0.00,,,0.11,,2013-06-07 03:12:00,
2013-06-06 23:22:00,74.0,73.0,29.91,SSW,198,8.0,11.0,96,0.00,,,0.11,,2013-06-07 03:22:00,
2013-06-06 23:33:00,74.0,73.0,29.91,South,178,6.0,9.0,96,0.00,,,0.11,,2013-06-07 03:33:00,
2013-06-06 23:43:00,74.0,73.0,29.91,South,178,6.0,9.0,96,0.00,,,0.11,,2013-06-07 03:43:00,
2013-06-06 23:53:00,74.0,73.0,29.91,South,178,6.0,9.0,96,0.00,,,0.11,,2013-06-07 03:53:00,